Marshall Don Hunter Sr Airport Marshall US
ICAO: PADM
IATA:
Category: Medium
Scheduled Services:

Elevation: 103 ft
TransAlt. 18000 ft.

Airport Communications:
ANCHORAGE CNTR:132.3
CTAF:122.9
ST MARYS RDO:124

PADM Zoom In..

Runways:

(A) RW 07 length 3200 ft width 100 ft
---- / hdg 70

(B) RW 25 length 3200 ft width 100 ft
---- / hdg 250

Location; PADM
Day. 24 / Time. 00.56 Zulu
* Altimeter: 30.18
* Temperature: -21° c. 5.8°f.
* Wind from: 080° Speed 06 kn.
Dewpoint: -27° c.
Visibility: 10 Statute Miles.
Clouds: Scattered 3300 ft.

PADM 240056Z AUTO 08006KT 10SM SCT033 M21/M27 A3018 RMK AO2 SLP231 T12111267 FZRANO


Wind From 080°
Speed 06 kn.

YouTube Music Video
 
jpsmedia.com for Web Design  worldairports.se 2018   terms of use